Time;durP1;ratioP1;P1;durP2;ratioP2;P2;SDS_P1;SDS_P2;PMS_P1;PMS_P2;Temp;Humidity;BMP_temperature;BMP_pressure;BME280_temperature;BME280_humidity;BME280_pressure;Samples;Min_cycle;Max_cycle;Signal;HPM_P1;HPM_P2
2022/05/25 00:00:40;;;;;;;5.47;2.88;;;;;;;5.97;60.91;99636.28;5034678;28;20057;-77
2022/05/25 00:03:07;;;;;;;9.55;3.70;;;;;;;5.81;61.57;99639.38;5035008;28;20057;-77
2022/05/25 00:05:36;;;;;;;8.88;3.92;;;;;;;5.68;61.71;99644.34;5034644;28;20496;-77
2022/05/25 00:08:04;;;;;;;10.18;4.10;;;;;;;5.60;62.59;99650.22;5034863;28;20137;-76
2022/05/25 00:10:33;;;;;;;13.82;4.65;;;;;;;5.50;62.48;99650.03;5017499;28;20053;-78
2022/05/25 00:13:01;;;;;;;9.20;4.20;;;;;;;5.43;63.30;99650.75;5035046;28;20131;-77
2022/05/25 00:15:29;;;;;;;16.92;5.57;;;;;;;5.39;63.10;99661.03;5034779;28;20061;-78
2022/05/25 00:17:56;;;;;;;9.55;4.13;;;;;;;5.28;63.62;99665.97;5034856;28;20578;-77
2022/05/25 00:20:25;;;;;;;8.10;4.20;;;;;;;5.16;64.25;99671.75;5035005;28;20056;-78
2022/05/25 00:23:15;;;;;;;11.02;4.10;;;;;;;4.99;64.68;99660.13;5041652;28;20060;-77
2022/05/25 00:25:42;;;;;;;6.72;3.80;;;;;;;4.79;64.39;99631.22;5036921;28;20061;-78
2022/05/25 00:28:13;;;;;;;10.98;4.55;;;;;;;4.91;65.35;99671.22;5034913;28;20049;-77
2022/05/25 00:30:43;;;;;;;10.88;5.40;;;;;;;4.84;65.31;99658.97;5022844;28;20584;-78
2022/05/25 00:33:12;;;;;;;12.23;4.38;;;;;;;4.61;65.84;99640.31;5013755;28;20057;-76
2022/05/25 00:35:57;;;;;;;11.63;5.05;;;;;;;4.74;65.52;99669.94;5014457;28;20427;-77
2022/05/25 00:38:25;;;;;;;13.43;5.82;;;;;;;4.70;65.79;99675.88;5014338;28;20060;-76
2022/05/25 00:40:54;;;;;;;13.63;5.00;;;;;;;4.62;66.28;99673.09;5014355;28;20144;-77
2022/05/25 00:43:20;;;;;;;12.85;5.85;;;;;;;4.60;66.02;99681.66;5014376;28;20144;-78
2022/05/25 00:46:05;;;;;;;14.75;6.38;;;;;;;4.55;66.50;99675.50;5014133;28;20087;-77
2022/05/25 00:48:44;;;;;;;13.23;5.00;;;;;;;4.23;67.19;99629.03;4998244;28;20137;-79
2022/05/25 00:51:38;;;;;;;15.93;5.50;;;;;;;4.46;67.08;99676.16;4996593;28;20519;-78
2022/05/25 00:54:19;;;;;;;11.95;5.68;;;;;;;4.43;66.85;99684.72;4981180;28;20085;-77
2022/05/25 00:56:50;;;;;;;12.73;6.00;;;;;;;4.13;67.28;99633.09;5013905;28;20046;-77
2022/05/25 00:59:28;;;;;;;19.60;6.63;;;;;;;4.29;67.27;99661.09;5014328;28;20054;-76
2022/05/25 01:01:57;;;;;;;21.70;8.10;;;;;;;4.37;67.13;99684.56;4996916;28;20061;-78
2022/05/25 01:04:26;;;;;;;15.40;5.70;;;;;;;4.38;67.01;99685.44;5013587;28;20064;-77
2022/05/25 01:07:08;;;;;;;10.98;4.90;;;;;;;4.41;67.75;99685.50;5013912;28;20078;-77
2022/05/25 01:09:49;;;;;;;11.30;5.53;;;;;;;4.38;67.29;99693.19;5018399;28;20131;-78
2022/05/25 01:12:26;;;;;;;14.48;5.75;;;;;;;4.36;67.72;99690.56;5017352;28;20065;-76
2022/05/25 01:15:09;;;;;;;8.45;4.80;;;;;;;4.30;67.65;99696.47;5014041;28;20143;-77
2022/05/25 01:18:20;;;;;;;13.52;5.65;;;;;;;4.21;67.19;99688.44;4996326;28;20503;-77
2022/05/25 01:20:53;;;;;;;10.63;4.70;;;;;;;4.04;67.58;99679.38;5013587;28;20050;-79
2022/05/25 01:23:39;;;;;;;12.73;5.75;;;;;;;4.22;67.94;99690.22;5013691;28;20427;-79
2022/05/25 01:26:41;;;;;;;14.30;5.18;;;;;;;4.23;67.94;99696.25;4996145;28;20132;-77
2022/05/25 01:29:33;;;;;;;11.32;5.00;;;;;;;4.23;67.88;99688.50;5013454;28;20400;-78
2022/05/25 01:32:10;;;;;;;13.60;5.88;;;;;;;4.35;67.67;99690.53;5013002;28;20474;-78
2022/05/25 01:34:54;;;;;;;14.25;6.22;;;;;;;4.37;67.25;99704.38;4996007;28;20144;-78
2022/05/25 01:37:51;;;;;;;17.52;5.90;;;;;;;4.45;67.37;99700.25;5013425;28;20140;-76
2022/05/25 01:40:33;;;;;;;12.38;5.40;;;;;;;4.49;67.43;99707.25;5013542;28;20112;-78
2022/05/25 01:43:11;;;;;;;11.75;5.07;;;;;;;4.48;66.79;99701.22;5013830;28;20123;-76
2022/05/25 01:45:46;;;;;;;14.93;6.22;;;;;;;4.57;67.36;99695.41;5013092;28;20466;-77
2022/05/25 01:48:18;;;;;;;12.65;5.78;;;;;;;4.64;66.90;99705.06;5013605;28;20518;-78
2022/05/25 01:51:01;;;;;;;10.15;4.28;;;;;;;4.67;67.05;99707.72;5013211;28;20148;-78
2022/05/25 01:53:35;;;;;;;11.43;5.18;;;;;;;4.69;66.67;99702.59;5013198;28;20492;-78
2022/05/25 01:56:06;;;;;;;9.65;4.40;;;;;;;4.78;66.24;99718.34;5013277;28;20405;-78
2022/05/25 01:58:40;;;;;;;12.30;5.32;;;;;;;4.83;66.15;99718.47;5013452;28;20144;-77
2022/05/25 02:01:11;;;;;;;9.18;4.50;;;;;;;4.98;66.08;99730.91;5013146;28;20048;-77
2022/05/25 02:06:50;;;;;;;9.80;4.15;;;;;;;5.22;65.71;99728.84;5013417;28;20591;-78
2022/05/25 02:09:37;;;;;;;4.53;3.10;;;;;;;5.43;64.60;99722.41;5013498;28;20446;-77
2022/05/25 02:12:34;;;;;;;5.03;2.97;;;;;;;5.63;64.26;99726.28;5013629;28;20056;-78
2022/05/25 02:15:37;;;;;;;5.38;3.20;;;;;;;6.70;62.57;99737.88;5013676;28;20419;-77
2022/05/25 02:18:13;;;;;;;6.90;3.65;;;;;;;10.62;52.16;99735.41;5013519;28;20088;-77
2022/05/25 02:21:00;;;;;;;6.13;3.65;;;;;;;13.77;45.21;99701.47;5013172;28;20053;-78
2022/05/25 02:24:01;;;;;;;5.32;2.80;;;;;;;16.12;39.41;99711.56;4977949;28;20046;-77
2022/05/25 02:26:41;;;;;;;4.53;3.17;;;;;;;17.71;36.24;99715.59;4964144;28;20059;-77
2022/05/25 02:29:10;;;;;;;;;;;;;;;18.49;38.16;99710.63;4980300;28;20508;-77
2022/05/25 02:31:44;;;;;;;4.97;3.30;;;;;;;19.32;33.62;99710.56;4980374;28;19933;-77
2022/05/25 02:34:16;;;;;;;4.32;3.08;;;;;;;19.89;31.63;99703.25;4980568;28;20050;-78
2022/05/25 02:36:46;;;;;;;3.78;2.70;;;;;;;20.74;30.03;99694.69;4982131;28;20475;-78
2022/05/25 02:39:13;;;;;;;5.20;3.05;;;;;;;21.62;28.55;99699.78;4984746;28;20050;-77
2022/05/25 02:41:46;;;;;;;3.03;2.72;;;;;;;21.98;27.26;99694.56;4993575;28;20141;-78
2022/05/25 02:44:14;;;;;;;6.50;3.55;;;;;;;22.66;26.45;99694.91;4992327;28;20059;-78
2022/05/25 02:46:41;;;;;;;4.63;2.95;;;;;;;23.92;24.85;99703.63;4994220;28;20109;-79
2022/05/25 02:49:09;;;;;;;7.82;3.58;;;;;;;24.81;23.66;99700.44;4994226;28;20058;-78
2022/05/25 02:51:37;;;;;;;5.50;3.17;;;;;;;25.18;23.08;99695.59;4993838;28;20085;-79
2022/05/25 02:54:05;;;;;;;4.50;3.35;;;;;;;25.87;22.46;99689.59;4994300;28;20062;-79
2022/05/25 02:56:33;;;;;;;6.05;3.22;;;;;;;26.30;21.57;99686.03;4994126;28;20532;-77
2022/05/25 02:59:03;;;;;;;7.38;3.67;;;;;;;26.69;21.27;99695.97;4994087;28;20054;-78
2022/05/25 03:01:32;;;;;;;5.75;3.75;;;;;;;26.67;20.70;99695.25;5006929;28;20056;-77
2022/05/25 03:03:58;;;;;;;7.72;4.00;;;;;;;26.08;20.78;99692.75;5036045;28;20057;-78
2022/05/25 03:06:26;;;;;;;4.13;3.53;;;;;;;25.72;21.01;99669.16;5035714;28;20053;-79
2022/05/25 03:08:54;;;;;;;7.18;3.80;;;;;;;25.63;21.16;99691.97;5035645;28;20123;-80
2022/05/25 03:11:22;;;;;;;9.45;4.40;;;;;;;26.58;20.44;99697.66;5035556;28;20057;-81
2022/05/25 03:13:50;;;;;;;6.50;3.47;;;;;;;27.35;19.32;99686.19;5035300;28;20065;-81
2022/05/25 03:16:18;;;;;;;9.57;3.72;;;;;;;27.25;19.37;99690.47;5035656;28;20059;-79
2022/05/25 03:18:46;;;;;;;5.82;3.70;;;;;;;27.18;19.08;99692.69;5035878;28;20057;-78
2022/05/25 03:21:13;;;;;;;4.10;3.63;;;;;;;27.51;19.08;99688.69;5035192;28;20541;-78
2022/05/25 03:23:40;;;;;;;4.65;3.40;;;;;;;27.64;18.73;99663.66;5035755;28;20073;-79
2022/05/25 03:26:08;;;;;;;4.13;3.50;;;;;;;28.32;18.00;99690.09;5035749;28;20053;-79
2022/05/25 03:28:36;;;;;;;3.97;3.28;;;;;;;29.20;17.38;99687.13;5035525;28;20116;-80
2022/05/25 03:31:05;;;;;;;6.38;3.80;;;;;;;29.59;17.12;99695.75;5018138;28;20064;-80
2022/05/25 03:33:33;;;;;;;8.77;4.25;;;;;;;30.21;16.60;99685.50;5035503;28;20593;-79
2022/05/25 03:36:00;;;;;;;5.82;3.88;;;;;;;30.33;15.96;99680.97;5017597;28;20053;-78
2022/05/25 03:38:28;;;;;;;5.07;3.65;;;;;;;30.96;15.36;99691.97;5016781;28;20054;-78
2022/05/25 03:40:58;;;;;;;5.78;3.90;;;;;;;30.99;15.65;99700.63;5014364;28;20041;-78
2022/05/25 03:43:31;;;;;;;5.88;3.90;;;;;;;31.19;15.42;99688.19;5014425;28;20049;-77
2022/05/25 03:45:58;;;;;;;5.60;3.70;;;;;;;30.96;15.44;99690.13;5023828;28;20083;-78
2022/05/25 03:48:25;;;;;;;8.20;4.15;;;;;;;30.89;15.37;99688.06;5033968;28;20053;-78
2022/05/25 03:50:52;;;;;;;6.43;4.00;;;;;;;30.83;15.20;99689.41;5023795;28;20054;-80
2022/05/25 03:53:19;;;;;;;9.38;4.68;;;;;;;31.08;15.03;99687.38;5014133;28;20495;-79
2022/05/25 03:55:47;;;;;;;6.82;4.85;;;;;;;31.32;15.15;99687.09;5021951;28;20049;-78
2022/05/25 03:58:16;;;;;;;7.50;4.55;;;;;;;31.04;14.85;99686.78;5016663;28;20057;-78
2022/05/25 04:00:44;;;;;;;;;;;;;;;30.83;16.25;99692.97;5024560;28;20057;-78
2022/05/25 04:03:16;;;;;;;6.53;4.80;;;;;;;29.99;15.35;99671.09;5026601;28;19933;-79
2022/05/25 04:05:43;;;;;;;9.00;5.57;;;;;;;28.81;16.24;99692.84;5027481;28;20057;-78
2022/05/25 04:08:10;;;;;;;8.90;4.90;;;;;;;26.01;18.82;99701.28;5027963;28;20053;-77
2022/05/25 04:10:38;;;;;;;7.43;5.30;;;;;;;22.77;22.14;99696.19;5020374;28;20141;-77
2022/05/25 04:13:08;;;;;;;7.07;5.07;;;;;;;20.09;25.52;99713.09;5014406;28;20053;-80
2022/05/25 04:15:35;;;;;;;8.13;5.40;;;;;;;18.78;27.55;99715.03;5020991;28;20388;-79
2022/05/25 04:18:03;;;;;;;10.90;5.90;;;;;;;17.64;28.84;99712.25;5034228;28;20049;-78
2022/05/25 04:20:32;;;;;;;8.15;5.68;;;;;;;16.75;30.38;99714.53;5017046;28;20107;-79
2022/05/25 04:23:02;;;;;;;8.07;5.30;;;;;;;15.92;31.56;99711.13;5016913;28;20061;-81
2022/05/25 04:25:33;;;;;;;10.23;6.10;;;;;;;14.99;33.03;99733.00;5029310;28;20149;-79
2022/05/25 04:28:00;;;;;;;8.73;5.10;;;;;;;14.80;33.45;99689.50;4997233;28;20566;-77
2022/05/25 04:30:29;;;;;;;7.35;4.60;;;;;;;14.89;33.91;99723.53;5016200;28;20049;-78
2022/05/25 04:32:57;;;;;;;5.87;3.87;;;;;;;15.01;33.27;99688.25;5021570;28;20094;-81
2022/05/25 04:35:26;;;;;;;6.03;3.65;;;;;;;15.25;32.72;99723.78;5023785;28;20318;-81
2022/05/25 04:37:56;;;;;;;4.53;3.10;;;;;;;15.11;32.83;99719.63;5024597;28;20095;-86
2022/05/25 04:40:25;;;;;;;3.72;2.40;;;;;;;14.65;33.34;99724.81;5024941;28;20557;-80
2022/05/25 04:42:55;;;;;;;4.32;3.00;;;;;;;13.86;34.51;99696.97;5025034;28;20054;-78
2022/05/25 04:45:25;;;;;;;5.13;3.50;;;;;;;14.00;34.95;99730.03;5023066;28;20148;-78
2022/05/25 04:47:57;;;;;;;3.97;3.38;;;;;;;14.09;35.12;99727.31;5006567;28;20041;-79
2022/05/25 04:50:29;;;;;;;3.78;2.75;;;;;;;14.15;34.65;99714.09;5024658;28;20523;-78
2022/05/25 04:52:59;;;;;;;5.53;3.60;;;;;;;14.47;34.93;99724.13;5022676;28;20423;-79
2022/05/25 04:58:25;;;;;;;4.55;2.67;;;;;;;14.02;35.03;99723.03;4999145;28;20051;-78
2022/05/25 05:00:55;;;;;;;2.80;2.40;;;;;;;14.36;34.88;99725.19;5023357;28;20521;-79
2022/05/25 05:03:24;;;;;;;2.83;2.00;;;;;;;14.09;34.96;99727.31;5019463;28;20491;-79
2022/05/25 05:05:54;;;;;;;3.03;2.13;;;;;;;13.40;36.01;99735.97;5013548;28;20144;-81
2022/05/25 05:08:26;;;;;;;4.00;2.30;;;;;;;13.62;36.12;99740.13;5014162;28;20096;-80
2022/05/25 05:10:54;;;;;;;2.85;1.90;;;;;;;13.76;35.27;99728.59;4996077;28;20068;-78
2022/05/25 05:13:22;;;;;;;6.35;1.90;;;;;;;13.88;35.40;99738.97;5014106;28;20108;-78
2022/05/25 05:15:53;;;;;;;4.18;2.10;;;;;;;14.22;34.57;99717.50;5013911;28;20435;-78
2022/05/25 05:18:23;;;;;;;2.40;1.92;;;;;;;14.35;34.11;99700.69;5014169;28;20137;-80
2022/05/25 05:21:15;;;;;;;3.85;2.00;;;;;;;14.45;34.02;99723.28;5013965;28;20566;-79
2022/05/25 05:23:43;;;;;;;3.05;1.70;;;;;;;14.93;33.09;99725.22;5014491;28;20051;-77
2022/05/25 05:26:14;;;;;;;5.15;2.13;;;;;;;14.32;34.30;99722.59;5015036;28;20149;-78
2022/05/25 05:28:44;;;;;;;3.33;1.98;;;;;;;13.55;35.78;99740.19;4996610;28;20057;-78
2022/05/25 05:31:14;;;;;;;4.03;2.47;;;;;;;13.05;36.81;99724.91;4997489;28;20054;-78
2022/05/25 05:33:41;;;;;;;4.75;2.42;;;;;;;13.15;36.93;99730.09;5013647;28;20108;-77
2022/05/25 05:36:23;;;;;;;5.13;2.22;;;;;;;12.89;37.23;99733.78;4999277;28;20048;-77
2022/05/25 05:38:57;;;;;;;4.13;2.20;;;;;;;12.28;38.52;99742.91;5013729;28;20480;-77
2022/05/25 05:41:39;;;;;;;7.10;2.50;;;;;;;11.80;39.53;99737.00;5016230;28;20088;-80
2022/05/25 05:44:08;;;;;;;4.95;2.55;;;;;;;11.67;39.65;99734.44;5015364;28;20077;-79
2022/05/25 05:46:38;;;;;;;7.93;3.03;;;;;;;11.55;39.27;99717.91;4979608;28;20061;-81
2022/05/25 05:49:06;;;;;;;3.50;2.50;;;;;;;11.77;39.42;99737.03;5013468;28;20057;-78
2022/05/25 05:51:37;;;;;;;3.05;2.58;;;;;;;12.08;38.59;99691.53;5012756;28;20053;-77
2022/05/25 05:54:05;;;;;;;3.47;2.17;;;;;;;12.12;37.89;99681.06;5013249;28;20058;-79
2022/05/25 05:56:33;;;;;;;2.17;1.70;;;;;;;12.21;37.70;99723.75;5013111;28;20058;-78
2022/05/25 05:59:04;;;;;;;2.25;1.88;;;;;;;12.09;37.35;99729.94;5013543;28;20145;-80
2022/05/25 06:01:32;;;;;;;2.78;1.85;;;;;;;11.82;38.35;99711.72;5012821;28;20054;-79
2022/05/25 06:04:00;;;;;;;4.13;1.83;;;;;;;11.99;37.88;99716.91;5012513;28;20081;-80
2022/05/25 06:06:27;;;;;;;2.05;1.70;;;;;;;12.35;37.26;99726.31;5013230;28;20053;-80
2022/05/25 06:08:56;;;;;;;3.63;2.05;;;;;;;12.82;36.74;99727.75;5012996;28;20081;-80
2022/05/25 06:11:23;;;;;;;3.90;2.33;;;;;;;13.30;36.51;99724.72;5017398;28;20073;-80
2022/05/25 06:13:51;;;;;;;3.15;2.03;;;;;;;13.52;35.93;99717.47;5015115;28;20468;-78
2022/05/25 06:22:12;;;;;;;2.60;1.95;;;;;;;13.88;34.91;99721.44;5016596;28;20479;-79
2022/05/25 06:24:45;;;;;;;4.57;1.88;;;;;;;13.54;34.73;99738.47;5016939;28;20054;-80
2022/05/25 06:27:13;;;;;;;3.47;1.65;;;;;;;13.08;35.57;99682.06;5016955;28;20060;-81
2022/05/25 06:29:43;;;;;;;3.35;2.00;;;;;;;13.82;34.47;99708.38;5016448;28;20057;-79
2022/05/25 06:32:12;;;;;;;3.65;2.00;;;;;;;14.64;33.35;99707.28;5016694;28;20053;-79
2022/05/25 06:34:42;;;;;;;3.92;1.90;;;;;;;14.92;33.11;99726.97;5016368;28;20566;-82
2022/05/25 06:37:32;;;;;;;5.53;2.17;;;;;;;14.28;33.28;99720.03;4999408;28;20061;-81
2022/05/25 06:40:00;;;;;;;3.13;1.70;;;;;;;13.64;33.58;99735.72;5026298;28;20057;-79
2022/05/25 06:42:29;;;;;;;5.45;2.10;;;;;;;13.43;33.91;99735.97;5016258;28;20096;-78
2022/05/25 06:44:57;;;;;;;3.60;1.45;;;;;;;13.32;33.84;99744.78;5016134;28;20140;-79
2022/05/25 06:47:24;;;;;;;2.70;1.75;;;;;;;13.09;33.70;99734.47;5016646;28;20053;-78
2022/05/25 06:49:53;;;;;;;3.03;1.52;;;;;;;13.18;33.46;99736.16;5016176;28;20054;-79
2022/05/25 06:52:23;;;;;;;1.88;1.73;;;;;;;13.25;33.69;99732.59;5016461;28;20066;-78
2022/05/25 06:54:54;;;;;;;4.60;2.42;;;;;;;13.44;33.65;99711.44;5016002;28;20057;-77
2022/05/25 06:57:25;;;;;;;8.20;4.38;;;;;;;13.70;33.43;99725.16;5016295;28;20510;-79
2022/05/25 06:59:54;;;;;;;3.22;2.58;;;;;;;13.87;33.35;99724.06;5016018;28;20077;-79
2022/05/25 07:02:23;;;;;;;;;;;;;;;14.05;33.21;99733.50;5016517;28;20057;-79
2022/05/25 07:04:51;;;;;;;4.45;2.00;;;;;;;14.26;33.38;99711.31;4998718;28;20023;-81
2022/05/25 07:07:18;;;;;;;2.60;2.15;;;;;;;14.56;32.64;99736.31;5016246;28;20085;-82
2022/05/25 07:09:47;;;;;;;2.30;1.88;;;;;;;14.88;32.10;99743.69;5018725;28;20057;-80
2022/05/25 07:12:18;;;;;;;2.88;1.80;;;;;;;15.10;31.80;99728.44;5000124;28;20148;-78
2022/05/25 07:14:44;;;;;;;5.10;2.50;;;;;;;15.27;31.76;99741.31;5015552;28;20606;-79
2022/05/25 07:17:11;;;;;;;3.35;1.80;;;;;;;14.85;31.10;99741.13;5015916;28;20058;-81
2022/05/25 07:19:39;;;;;;;2.42;1.90;;;;;;;14.78;31.50;99744.75;5015738;28;20081;-82
2022/05/25 07:22:09;;;;;;;8.38;2.50;;;;;;;14.80;31.99;99736.81;5015969;28;20053;-81
2022/05/25 07:24:44;;;;;;;4.80;2.10;;;;;;;14.82;32.13;99741.19;5015734;28;20060;-82
2022/05/25 07:27:11;;;;;;;2.40;1.90;;;;;;;14.50;32.03;99715.38;5015550;28;20141;-82
2022/05/25 07:29:40;;;;;;;2.20;1.90;;;;;;;13.97;33.01;99732.72;5015188;28;20060;-80
2022/05/25 07:32:11;;;;;;;4.63;2.03;;;;;;;13.98;33.44;99731.81;5015749;28;20050;-79
2022/05/25 07:34:41;;;;;;;;;;;;;;;13.98;33.12;99737.06;5015923;28;20050;-76
2022/05/25 07:37:15;;;;;;;10.23;3.03;;;;;;;14.43;32.44;99738.25;5015467;28;19925;-79
2022/05/25 07:40:11;;;;;;;2.75;2.00;;;;;;;14.86;30.95;99726.22;5015150;28;20081;-81
2022/05/25 07:42:44;;;;;;;2.25;1.67;;;;;;;14.69;30.93;99721.22;5015577;28;20046;-81
2022/05/25 07:45:14;;;;;;;2.80;2.00;;;;;;;14.84;31.38;99728.00;4998325;28;20061;-82
2022/05/25 07:47:41;;;;;;;6.00;2.20;;;;;;;14.82;31.69;99709.63;5015174;28;20060;-83
2022/05/25 07:50:09;;;;;;;2.25;1.80;;;;;;;15.09;30.89;99708.28;5015771;28;20049;-84
2022/05/25 07:52:39;;;;;;;4.07;2.10;;;;;;;15.15;30.46;99712.56;5015631;28;20077;-83
2022/05/25 07:55:08;;;;;;;4.80;2.00;;;;;;;15.10;30.84;99740.72;5022213;28;20061;-77
2022/05/25 07:57:36;;;;;;;2.55;1.77;;;;;;;14.80;31.06;99737.72;5034751;28;20053;-78
2022/05/25 08:00:07;;;;;;;3.17;1.80;;;;;;;14.51;31.32;99743.38;5030800;28;20141;-79
2022/05/25 08:05:44;;;;;;;4.07;2.13;;;;;;;14.83;30.27;99727.13;5014835;28;20053;-82
2022/05/25 08:08:24;;;;;;;1.35;1.25;;;;;;;15.23;29.59;99741.38;5015488;28;20606;-81
2022/05/25 08:11:10;;;;;;;2.22;1.40;;;;;;;15.23;28.98;99694.00;5014834;28;20077;-79
2022/05/25 08:13:43;;;;;;;1.50;1.40;;;;;;;15.53;28.70;99726.78;5014680;28;20061;-81
2022/05/25 08:16:12;;;;;;;2.58;1.50;;;;;;;15.80;28.38;99719.28;5014714;28;20057;-78
2022/05/25 08:18:40;;;;;;;1.63;1.50;;;;;;;15.66;28.75;99725.66;5014496;28;20081;-78
2022/05/25 08:21:10;;;;;;;2.70;1.80;;;;;;;15.35;29.37;99722.72;5014717;28;20061;-78
2022/05/25 08:23:38;;;;;;;2.47;1.50;;;;;;;15.52;29.08;99732.94;5014365;28;20462;-78
2022/05/25 08:26:05;;;;;;;2.95;1.40;;;;;;;15.28;29.51;99719.34;5014273;28;20060;-78
2022/05/25 08:28:33;;;;;;;2.97;1.70;;;;;;;15.14;29.51;99727.50;5014615;28;20104;-79
2022/05/25 08:31:02;;;;;;;2.28;1.73;;;;;;;14.89;30.20;99734.06;5013918;28;20060;-79
2022/05/25 08:33:29;;;;;;;2.97;2.13;;;;;;;14.60;30.97;99734.50;5014413;28;20569;-79
2022/05/25 08:35:57;;;;;;;1.73;1.63;;;;;;;14.19;31.25;99736.78;5014615;28;20088;-79
2022/05/25 08:38:27;;;;;;;3.72;2.22;;;;;;;14.31;31.36;99733.16;5014509;28;20050;-80
2022/05/25 08:40:55;;;;;;;4.72;1.80;;;;;;;14.75;30.84;99702.72;4996239;28;20141;-78
2022/05/25 08:43:39;;;;;;;2.30;1.63;;;;;;;15.50;29.93;99718.94;4996832;28;20148;-80
2022/05/25 08:46:13;;;;;;;3.15;1.90;;;;;;;15.78;28.37;99724.56;5014126;28;20058;-79
2022/05/25 08:48:43;;;;;;;2.25;1.42;;;;;;;15.62;28.35;99702.94;5014132;28;20112;-78
2022/05/25 08:51:39;;;;;;;1.90;1.70;;;;;;;15.75;28.21;99720.25;5014078;28;20458;-81
2022/05/25 08:54:09;;;;;;;2.80;1.55;;;;;;;15.34;28.65;99711.34;5014707;28;20058;-82
2022/05/25 08:56:44;;;;;;;;;;;;;;;14.61;29.95;99737.13;4996922;28;20519;-82
2022/05/25 08:59:15;;;;;;;5.60;2.22;;;;;;;14.38;29.91;99726.91;4996763;28;20387;-79
2022/05/25 09:02:04;;;;;;;3.20;1.27;;;;;;;14.27;29.90;99677.13;5014219;28;20100;-80
2022/05/25 09:04:53;;;;;;;4.75;2.55;;;;;;;14.69;29.87;99727.38;5013878;28;20054;-79
2022/05/25 09:07:33;;;;;;;7.03;2.83;;;;;;;14.78;30.26;99739.50;5014348;28;20168;-82
2022/05/25 09:10:03;;;;;;;3.25;1.73;;;;;;;15.31;29.69;99719.28;5013949;28;20491;-81
2022/05/25 09:12:41;;;;;;;1.73;1.60;;;;;;;15.88;28.94;99723.50;5014668;28;20049;-83
2022/05/25 09:15:25;;;;;;;3.72;2.25;;;;;;;15.91;28.35;99704.13;5013815;28;20084;-83
2022/05/25 09:18:00;;;;;;;2.95;2.00;;;;;;;16.39;27.73;99722.41;5014130;28;20522;-79
2022/05/25 09:20:37;;;;;;;2.72;1.67;;;;;;;16.56;27.45;99693.00;5013742;28;20124;-80
2022/05/25 09:23:06;;;;;;;1.42;1.33;;;;;;;16.52;27.17;99715.06;4996198;28;20064;-79
2022/05/25 09:25:34;;;;;;;3.25;1.77;;;;;;;16.65;26.45;99713.00;5013811;28;20089;-79
2022/05/25 09:28:12;;;;;;;2.72;1.52;;;;;;;16.58;27.07;99699.09;5014761;28;20419;-79
2022/05/25 09:30:45;;;;;;;5.55;1.70;;;;;;;15.89;27.97;99711.19;5013122;28;20056;-78
2022/05/25 09:33:19;;;;;;;1.63;1.45;;;;;;;15.42;28.48;99705.06;5018205;28;20491;-79
2022/05/25 09:36:04;;;;;;;2.10;1.60;;;;;;;14.87;28.75;99685.88;5014027;28;20053;-78
2022/05/25 09:38:31;;;;;;;2.70;1.52;;;;;;;14.94;29.17;99708.53;5013754;28;20503;-77
2022/05/25 09:41:09;;;;;;;6.43;2.40;;;;;;;15.38;28.84;99709.53;5013235;28;20530;-78
2022/05/25 09:43:36;;;;;;;3.38;1.98;;;;;;;15.80;29.59;99711.38;5013597;28;20057;-78
2022/05/25 09:46:10;;;;;;;3.25;1.88;;;;;;;16.41;27.58;99691.59;5013170;28;20064;-79
2022/05/25 09:48:58;;;;;;;4.63;2.83;;;;;;;17.13;27.42;99703.03;5013650;28;20057;-79
2022/05/25 09:51:35;;;;;;;4.35;2.45;;;;;;;17.60;27.20;99700.91;5014203;28;20116;-79
2022/05/25 09:54:12;;;;;;;10.02;3.60;;;;;;;17.37;26.73;99672.47;5013855;28;20054;-80
2022/05/25 09:56:52;;;;;;;4.07;2.05;;;;;;;17.27;26.16;99701.81;5015112;28;20053;-79
2022/05/25 09:59:26;;;;;;;4.65;2.15;;;;;;;16.99;25.97;99718.34;5014159;28;20069;-81
2022/05/25 10:01:54;;;;;;;3.38;2.13;;;;;;;16.35;26.62;99707.56;5013030;28;20107;-77
2022/05/25 10:04:51;;;;;;;11.32;3.55;;;;;;;15.86;27.99;99703.38;5012729;28;20434;-79
2022/05/25 10:07:34;;;;;;;4.28;2.65;;;;;;;15.57;28.37;99715.28;5013007;28;20045;-79
2022/05/25 10:10:05;;;;;;;4.25;2.17;;;;;;;15.72;28.10;99701.88;5012735;28;20108;-80
2022/05/25 10:12:43;;;;;;;4.32;2.40;;;;;;;16.04;27.37;99710.84;5013251;28;20141;-82
2022/05/25 10:15:37;;;;;;;10.02;4.18;;;;;;;16.03;27.39;99652.94;5012935;28;20069;-83
2022/05/25 10:18:13;;;;;;;2.78;2.33;;;;;;;16.57;27.05;99695.59;5013459;28;20053;-83
2022/05/25 10:20:42;;;;;;;4.63;2.17;;;;;;;16.78;26.22;99691.59;5012650;28;20070;-80
2022/05/25 10:23:22;;;;;;;4.95;2.30;;;;;;;16.80;26.27;99683.69;5012431;28;20432;-79
2022/05/25 10:25:58;;;;;;;2.95;2.13;;;;;;;16.93;25.70;99682.47;5013234;28;20046;-80
2022/05/25 10:28:35;;;;;;;3.67;2.65;;;;;;;17.44;25.20;99675.81;4995583;28;20060;-81
2022/05/25 10:37:19;;;;;;;7.80;2.38;;;;;;;16.62;26.10;99649.81;5013791;28;20049;-82
2022/05/25 10:39:54;;;;;;;3.25;2.42;;;;;;;16.92;25.92;99669.28;5013409;28;20148;-81
2022/05/25 10:42:55;;;;;;;5.00;2.70;;;;;;;16.85;26.45;99652.75;5021640;28;20053;-83
2022/05/25 10:45:32;;;;;;;3.50;2.73;;;;;;;17.12;26.30;99652.94;5033511;28;20102;-83
2022/05/25 10:48:11;;;;;;;7.00;2.50;;;;;;;17.22;26.00;99662.34;5035204;28;20053;-81
2022/05/25 10:51:00;;;;;;;4.22;2.60;;;;;;;17.08;25.62;99632.81;5033580;28;20442;-80
2022/05/25 10:57:10;;;;;;;5.78;2.60;;;;;;;17.48;25.38;99651.06;5032272;28;20076;-78
2022/05/25 11:00:12;;;;;;;7.35;2.97;;;;;;;17.59;25.35;99648.13;5032150;28;20057;-80
2022/05/25 11:02:50;;;;;;;5.22;2.92;;;;;;;17.57;25.68;99652.56;4996216;28;20049;-82
2022/05/25 11:05:31;;;;;;;3.92;2.90;;;;;;;17.67;25.67;99654.03;5033811;28;20054;-81
2022/05/25 11:08:25;;;;;;;5.88;3.83;;;;;;;17.76;25.07;99637.06;5035678;28;20080;-80
2022/05/25 11:11:05;;;;;;;7.68;4.68;;;;;;;17.89;25.10;99645.53;5035525;28;20053;-79
2022/05/25 11:13:44;;;;;;;;;;;;;;;17.80;25.60;99644.84;5010921;28;20046;-80
2022/05/25 11:16:17;;;;;;;4.25;3.15;;;;;;;17.63;25.13;99640.97;5014304;28;19928;-81
2022/05/25 11:19:13;;;;;;;5.60;3.30;;;;;;;17.69;25.40;99644.31;5036034;28;20073;-79
2022/05/25 11:22:01;;;;;;;5.97;3.20;;;;;;;18.01;25.13;99642.50;5035750;28;20084;-78
2022/05/25 11:24:48;;;;;;;5.07;2.85;;;;;;;18.07;25.03;99636.16;5035450;28;20517;-80
2022/05/25 11:27:34;;;;;;;4.78;2.80;;;;;;;18.26;24.75;99634.66;5035489;28;20053;-78
2022/05/25 11:30:18;;;;;;;9.85;4.07;;;;;;;18.27;24.65;99628.47;5035971;28;20503;-78
2022/05/25 11:33:03;;;;;;;6.80;3.17;;;;;;;18.01;24.71;99600.22;5036510;28;20103;-79
2022/05/25 11:35:41;;;;;;;3.85;2.90;;;;;;;17.88;25.25;99615.59;5011133;28;20049;-79
2022/05/25 11:38:09;;;;;;;8.85;3.08;;;;;;;17.77;25.33;99631.75;5007427;28;20049;-81
2022/05/25 11:40:55;;;;;;;6.03;3.40;;;;;;;17.48;25.37;99632.56;5015845;28;20050;-80
2022/05/25 11:44:06;;;;;;;3.80;2.90;;;;;;;17.04;25.77;99644.38;5019188;28;20050;-78
2022/05/25 11:46:43;;;;;;;5.97;3.17;;;;;;;16.74;26.57;99641.59;5016625;28;20442;-80
2022/05/25 11:49:41;;;;;;;5.55;2.90;;;;;;;16.61;26.70;99646.31;5015542;28;20049;-80
2022/05/25 11:52:31;;;;;;;5.20;2.80;;;;;;;16.61;27.16;99641.03;5015845;28;20049;-82
2022/05/25 11:55:11;;;;;;;4.73;3.03;;;;;;;16.77;26.34;99644.13;5015558;28;20173;-81
2022/05/25 11:57:50;;;;;;;4.30;2.50;;;;;;;16.89;26.52;99643.88;5015296;28;20337;-82
2022/05/25 12:00:31;;;;;;;3.72;2.67;;;;;;;16.68;26.42;99647.88;5014983;28;20053;-81
2022/05/25 12:03:24;;;;;;;8.95;2.95;;;;;;;16.67;26.47;99646.16;5015332;28;20452;-81
2022/05/25 12:05:55;;;;;;;6.10;2.70;;;;;;;16.47;26.24;99633.44;5015241;28;20515;-81
2022/05/25 12:08:42;;;;;;;4.18;2.50;;;;;;;16.23;26.70;99644.59;5015091;28;20046;-79
2022/05/25 12:11:33;;;;;;;5.30;2.80;;;;;;;15.97;27.19;99631.09;5014887;28;20096;-80
2022/05/25 12:14:27;;;;;;;3.88;2.97;;;;;;;16.03;27.14;99643.28;5014905;28;20089;-80
2022/05/25 12:17:07;;;;;;;2.78;2.53;;;;;;;16.05;27.03;99638.84;5015042;28;20104;-79
2022/05/25 12:19:37;;;;;;;4.57;3.05;;;;;;;16.24;27.37;99628.75;5014681;28;20050;-79
2022/05/25 12:22:11;;;;;;;4.75;3.20;;;;;;;16.48;26.83;99643.09;5014397;28;20050;-80
2022/05/25 12:24:47;;;;;;;4.53;3.40;;;;;;;16.68;26.16;99639.09;4996880;28;20054;-80
2022/05/25 12:27:19;;;;;;;11.93;4.00;;;;;;;16.72;26.45;99635.50;5014553;28;20436;-79
2022/05/25 12:29:51;;;;;;;8.98;4.00;;;;;;;16.57;26.73;99628.81;5017701;28;20053;-79
2022/05/25 12:32:21;;;;;;;6.72;3.97;;;;;;;16.52;26.99;99642.13;5031382;28;20080;-79